createdAt,value
2023-05-22T00:03:00.660Z,101127.96
2023-05-22T00:08:11.751Z,101123.95
2023-05-22T00:13:17.240Z,101121.14
2023-05-22T00:18:23.222Z,101121.23
2023-05-22T00:23:29.965Z,101114.80
2023-05-22T00:28:35.654Z,101114.48
2023-05-22T00:33:41.168Z,101114.73
2023-05-22T00:38:48.475Z,101120.56
2023-05-22T00:43:54.817Z,101121.02
2023-05-22T00:49:00.285Z,101117.27
2023-05-22T00:54:06.717Z,101115.89
2023-05-22T00:59:12.607Z,101116.95
2023-05-22T01:04:18.636Z,101119.42
2023-05-22T01:09:24.713Z,101123.34
2023-05-22T01:14:40.404Z,101123.05
2023-05-22T01:20:07.702Z,101117.62
2023-05-22T01:25:32.499Z,101118.02
2023-05-22T01:30:48.079Z,101117.55
2023-05-22T01:35:57.617Z,101114.36
2023-05-22T01:41:04.365Z,101119.11
2023-05-22T01:46:09.870Z,101120.08
2023-05-22T01:51:22.142Z,101119.13
2023-05-22T01:56:34.873Z,101122.10
2023-05-22T02:01:41.506Z,101118.63
2023-05-22T02:06:48.463Z,101121.41
2023-05-22T02:11:53.969Z,101123.34
2023-05-22T02:17:02.204Z,101125.46
2023-05-22T02:22:09.997Z,101125.52
2023-05-22T02:27:16.865Z,101123.11
2023-05-22T02:32:22.527Z,101123.26
2023-05-22T02:37:28.125Z,101122.21
2023-05-22T02:42:34.669Z,101114.61
2023-05-22T02:47:40.593Z,101117.38
2023-05-22T02:52:46.410Z,101113.59
2023-05-22T02:57:51.899Z,101109.95
2023-05-22T03:02:57.566Z,101105.92
2023-05-22T03:08:03.333Z,101102.23
2023-05-22T03:13:08.974Z,101098.92
2023-05-22T03:18:14.570Z,101100.13
2023-05-22T03:23:21.261Z,101104.42
2023-05-22T03:28:26.912Z,101106.23
2023-05-22T03:33:32.376Z,101101.90
2023-05-22T03:38:38.823Z,101103.22
2023-05-22T03:43:45.705Z,101104.64
2023-05-22T03:48:51.461Z,101095.00
2023-05-22T03:53:57.218Z,101103.40
2023-05-22T03:59:03.253Z,101104.75
2023-05-22T04:04:09.658Z,101102.09
2023-05-22T04:09:16.370Z,101100.48
2023-05-22T04:14:22.257Z,101104.37
2023-05-22T04:19:28.331Z,101094.18
2023-05-22T04:24:34.019Z,101086.38
2023-05-22T04:29:41.551Z,101081.73
2023-05-22T04:34:51.225Z,101075.83
2023-05-22T04:39:58.379Z,101067.48
2023-05-22T04:45:04.100Z,101068.20
2023-05-22T04:50:10.905Z,101063.17
2023-05-22T04:55:16.975Z,101067.28
2023-05-22T05:00:26.675Z,101068.45
2023-05-22T05:05:33.006Z,101064.72
2023-05-22T05:10:38.779Z,101065.98
2023-05-22T05:15:44.845Z,101063.10
2023-05-22T05:20:51.939Z,101059.45
2023-05-22T05:25:58.474Z,101061.30
2023-05-22T05:31:05.090Z,101063.16
2023-05-22T05:36:31.706Z,101060.05
2023-05-22T05:41:37.484Z,101064.45
2023-05-22T05:46:47.197Z,101062.12
2023-05-22T05:51:55.540Z,101061.71
2023-05-22T05:57:04.264Z,101059.83
2023-05-22T06:02:09.967Z,101057.89
2023-05-22T06:07:16.374Z,101056.70
2023-05-22T06:12:27.810Z,101052.40
2023-05-22T06:17:33.939Z,101053.73
2023-05-22T06:22:40.478Z,101054.63
2023-05-22T06:27:47.514Z,101047.45
2023-05-22T06:32:55.479Z,101042.71
2023-05-22T06:38:02.131Z,101037.95
2023-05-22T06:43:07.844Z,101035.48
2023-05-22T06:48:22.893Z,101034.20
2023-05-22T06:53:42.042Z,101037.66
2023-05-22T06:58:57.338Z,101037.14
2023-05-22T07:04:11.437Z,101030.90
2023-05-22T07:09:32.571Z,101026.63
2023-05-22T07:14:38.258Z,101031.37
2023-05-22T07:19:44.352Z,101029.99
2023-05-22T07:24:50.851Z,101027.30
2023-05-22T07:29:57.212Z,101019.53
2023-05-22T07:35:03.199Z,101018.44
2023-05-22T07:40:11.596Z,101016.15
2023-05-22T07:45:17.486Z,101009.31
2023-05-22T07:50:26.847Z,101006.73
2023-05-22T07:55:33.043Z,101001.33
2023-05-22T08:00:39.430Z,100998.67
2023-05-22T08:05:43.846Z,100992.45
2023-05-22T08:11:03.132Z,100997.23
2023-05-22T08:16:11.206Z,100994.98
2023-05-22T08:21:16.237Z,100992.83
2023-05-22T08:26:23.273Z,100993.30
2023-05-22T08:31:29.549Z,100988.20
2023-05-22T08:36:35.865Z,100990.41
2023-05-22T08:41:43.804Z,100993.29
2023-05-22T08:46:51.055Z,100997.66
2023-05-22T08:52:03.205Z,100990.69
2023-05-22T08:57:09.390Z,100988.88
2023-05-22T09:02:16.611Z,100992.95
2023-05-22T09:07:24.858Z,100982.48
2023-05-22T09:12:31.778Z,100981.02
2023-05-22T09:17:41.399Z,100978.27
2023-05-22T09:22:49.164Z,100977.67
2023-05-22T09:27:55.488Z,100969.65
2023-05-22T09:33:01.326Z,100969.09
2023-05-22T09:38:10.185Z,100964.31
2023-05-22T09:43:21.581Z,100958.83
2023-05-22T09:48:28.446Z,100948.39
2023-05-22T09:53:35.078Z,100945.19
2023-05-22T09:58:45.497Z,100948.33
2023-05-22T10:03:56.490Z,100942.64
2023-05-22T10:09:09.223Z,100948.80
2023-05-22T10:14:15.948Z,100952.20
2023-05-22T10:19:27.449Z,100948.80
2023-05-22T10:24:34.867Z,100938.73
2023-05-22T10:29:47.817Z,100941.18
2023-05-22T10:35:04.896Z,100941.50
2023-05-22T10:40:13.949Z,100936.91
2023-05-22T10:45:20.111Z,100931.30
2023-05-22T10:50:26.286Z,100929.86
2023-05-22T10:55:32.315Z,100923.73
2023-05-22T11:00:39.682Z,100923.30
2023-05-22T11:05:54.579Z,100919.16
2023-05-22T11:11:12.212Z,100919.00
2023-05-22T11:16:19.163Z,100908.26
2023-05-22T11:21:25.856Z,100905.30
2023-05-22T11:26:33.674Z,100897.95
2023-05-22T11:31:46.620Z,100898.70
2023-05-22T11:36:57.658Z,100887.44
2023-05-22T11:42:07.133Z,100887.60
2023-05-22T11:47:11.682Z,100886.34
2023-05-22T11:52:20.173Z,100884.64
2023-05-22T11:57:26.961Z,100878.08
2023-05-22T12:02:33.425Z,100876.23
2023-05-22T12:07:39.570Z,100871.63
2023-05-22T12:12:45.952Z,100868.29
2023-05-22T12:17:56.740Z,100867.66
2023-05-22T12:23:02.786Z,100872.04
2023-05-22T12:28:08.718Z,100863.52
2023-05-22T12:33:17.491Z,100859.61
2023-05-22T12:38:27.363Z,100855.59
2023-05-22T12:43:32.834Z,100855.91
2023-05-22T12:48:38.351Z,100845.00
2023-05-22T12:53:43.813Z,100838.42
2023-05-22T12:58:49.279Z,100833.49
2023-05-22T13:03:55.246Z,100837.60
2023-05-22T13:09:00.964Z,100832.69
2023-05-22T13:14:06.743Z,100831.02
2023-05-22T13:19:12.232Z,100829.16
2023-05-22T13:24:17.704Z,100822.59
2023-05-22T13:29:23.233Z,100821.62
2023-05-22T13:34:29.313Z,100812.54
2023-05-22T13:39:35.343Z,100808.14
2023-05-22T13:44:40.834Z,100803.27
2023-05-22T13:49:46.660Z,100803.34
2023-05-22T13:54:52.101Z,100803.34
2023-05-22T13:59:57.621Z,100799.69
2023-05-22T14:05:03.178Z,100795.14
2023-05-22T14:10:10.632Z,100798.60
2023-05-22T14:15:17.732Z,100791.39
2023-05-22T14:20:23.346Z,100791.97
2023-05-22T14:25:28.814Z,100788.54
2023-05-22T14:30:34.274Z,100787.04
2023-05-22T14:35:40.124Z,100782.64
2023-05-22T14:40:46.071Z,100774.30
2023-05-22T14:45:51.613Z,100773.89
2023-05-22T14:50:57.402Z,100765.08
2023-05-22T14:56:03.393Z,100758.45
2023-05-22T15:01:08.874Z,100756.26
2023-05-22T15:06:14.486Z,100752.41
2023-05-22T15:11:19.882Z,100754.74
2023-05-22T15:16:26.114Z,100754.27
2023-05-22T15:21:31.671Z,100756.48
2023-05-22T15:26:37.302Z,100747.33
2023-05-22T15:31:42.833Z,100746.31
2023-05-22T15:36:48.431Z,100748.23
2023-05-22T15:42:05.215Z,100741.55
2023-05-22T15:47:16.936Z,100738.42
2023-05-22T15:52:24.643Z,100733.23
2023-05-22T15:57:30.190Z,100725.99
2023-05-22T16:02:36.440Z,100721.33
2023-05-22T16:07:42.280Z,100719.09
2023-05-22T16:12:47.890Z,100718.69
2023-05-22T16:17:54.579Z,100720.40
2023-05-22T16:23:00.346Z,100715.54
2023-05-22T16:28:05.867Z,100708.02
2023-05-22T16:33:12.305Z,100706.48
2023-05-22T16:38:17.834Z,100706.98
2023-05-22T16:43:23.325Z,100709.61
2023-05-22T16:48:28.970Z,100711.55
2023-05-22T16:53:36.139Z,100704.69
2023-05-22T16:58:44.004Z,100710.52
2023-05-22T17:03:49.726Z,100709.07
2023-05-22T17:08:56.062Z,100714.21
2023-05-22T17:14:02.110Z,100715.13
2023-05-22T17:19:07.542Z,100719.99
2023-05-22T17:24:14.876Z,100722.79
2023-05-22T17:29:20.835Z,100722.10
2023-05-22T17:34:26.423Z,100722.78
2023-05-22T17:39:32.039Z,100721.59
2023-05-22T17:44:37.396Z,100722.02
2023-05-22T17:49:43.069Z,100719.95
2023-05-22T17:54:49.933Z,100717.40
2023-05-22T17:59:55.318Z,100712.88
2023-05-22T18:05:01.237Z,100709.73
2023-05-22T18:10:08.605Z,100712.45
2023-05-22T18:15:14.304Z,100714.49
2023-05-22T18:20:20.129Z,100713.86
2023-05-22T18:25:25.815Z,100711.73
2023-05-22T18:30:32.345Z,100709.74
2023-05-22T18:35:38.176Z,100712.17
2023-05-22T18:40:44.797Z,100715.64
2023-05-22T18:45:50.935Z,100716.05
2023-05-22T18:50:57.856Z,100718.05
2023-05-22T18:56:03.490Z,100720.91
2023-05-22T19:01:10.426Z,100724.98
2023-05-22T19:06:16.199Z,100728.11
2023-05-22T19:11:23.906Z,100732.58
2023-05-22T19:16:30.615Z,100734.39
2023-05-22T19:21:35.966Z,100732.81
2023-05-22T19:26:42.026Z,100728.05
2023-05-22T19:31:47.548Z,100732.39
2023-05-22T19:36:57.586Z,100735.16
2023-05-22T19:42:03.294Z,100733.36
2023-05-22T19:47:10.790Z,100733.67
2023-05-22T19:52:17.679Z,100732.34
2023-05-22T19:57:23.234Z,100729.05
2023-05-22T20:02:28.834Z,100733.66
2023-05-22T20:07:34.594Z,100734.48
2023-05-22T20:12:40.183Z,100733.52
2023-05-22T20:17:51.924Z,100730.50
2023-05-22T20:22:59.180Z,100728.06
2023-05-22T20:28:05.683Z,100726.29
2023-05-22T20:33:11.910Z,100726.31
2023-05-22T20:38:19.051Z,100728.41
2023-05-22T20:43:26.177Z,100720.98
2023-05-22T20:48:31.749Z,100718.63
2023-05-22T20:53:37.245Z,100720.76
2023-05-22T20:58:42.805Z,100718.32
2023-05-22T21:03:50.070Z,100716.88
2023-05-22T21:08:59.753Z,100714.27
2023-05-22T21:14:05.330Z,100716.81
2023-05-22T21:19:10.802Z,100720.83
2023-05-22T21:24:16.192Z,100715.48
2023-05-22T21:29:21.610Z,100713.48
2023-05-22T21:34:26.934Z,100710.85
2023-05-22T21:39:32.437Z,100705.32
2023-05-22T21:44:37.911Z,100707.11
2023-05-22T21:49:43.315Z,100709.66
2023-05-22T21:54:48.744Z,100713.65
2023-05-22T21:59:54.266Z,100714.08
2023-05-22T22:04:59.686Z,100717.27
2023-05-22T22:10:06.080Z,100717.66
2023-05-22T22:15:14.143Z,100712.90
2023-05-22T22:20:30.314Z,100712.19
2023-05-22T22:25:39.947Z,100708.52
2023-05-22T22:30:45.654Z,100703.29
2023-05-22T22:35:51.428Z,100704.73
2023-05-22T22:40:56.865Z,100707.94
2023-05-22T22:46:02.250Z,100708.78
2023-05-22T22:51:07.747Z,100708.61
2023-05-22T22:56:13.341Z,100708.86
2023-05-22T23:01:18.708Z,100703.42
2023-05-22T23:06:24.308Z,100697.69
2023-05-22T23:11:37.296Z,100692.34
2023-05-22T23:16:42.881Z,100682.03
2023-05-22T23:21:48.605Z,100676.38
2023-05-22T23:26:53.962Z,100673.08
2023-05-22T23:31:59.649Z,100670.70
2023-05-22T23:37:05.411Z,100667.64
2023-05-22T23:42:11.979Z,100662.04
2023-05-22T23:47:18.745Z,100659.20
2023-05-22T23:52:24.190Z,100659.56
2023-05-22T23:57:29.542Z,100656.42
